Time;durP1;ratioP1;P1;durP2;ratioP2;P2;SDS_P1;SDS_P2;PMS_P1;PMS_P2;Temp;Humidity;BMP_temperature;BMP_pressure;BME280_temperature;BME280_humidity;BME280_pressure;Samples;Min_cycle;Max_cycle;Signal;HPM_P1;HPM_P2
2021/01/21 00:00:48;;;;;;;8.07;4.03;;;;;;;;;;5079568;28;20125;-73
2021/01/21 00:03:15;;;;;;;6.30;2.92;;;;;;;;;;5081358;28;20134;-73
2021/01/21 00:05:41;;;;;;;6.90;2.97;;;;;;;;;;5081308;28;20052;-73
2021/01/21 00:08:07;;;;;;;6.05;2.53;;;;;;;;;;5079672;28;20040;-73
2021/01/21 00:10:33;;;;;;;11.55;3.50;;;;;;;;;;5080451;28;20036;-73
2021/01/21 00:13:00;;;;;;;5.90;3.00;;;;;;;;;;5088557;28;20130;-73
2021/01/21 00:15:26;;;;;;;6.15;3.08;;;;;;;;;;5079973;28;20044;-73
2021/01/21 00:17:52;;;;;;;9.80;3.55;;;;;;;;;;5110318;27;20051;-73
2021/01/21 00:20:18;;;;;;;9.60;3.47;;;;;;;;;;5082939;28;20175;-72
2021/01/21 00:22:45;;;;;;;8.05;3.72;;;;;;;;;;5080566;28;20078;-72
2021/01/21 00:25:11;;;;;;;9.90;3.08;;;;;;;;;;5086586;28;20348;-73
2021/01/21 00:27:37;;;;;;;7.15;3.15;;;;;;;;;;5079574;28;20094;-73
2021/01/21 00:30:06;;;;;;;8.98;3.15;;;;;;;;;;5081948;28;20105;-73
2021/01/21 00:32:32;;;;;;;10.77;3.30;;;;;;;;;;5082316;28;20040;-73
2021/01/21 00:34:58;;;;;;;7.57;3.22;;;;;;;;;;5080972;28;20381;-73
2021/01/21 00:37:24;;;;;;;5.22;2.75;;;;;;;;;;5085397;28;20126;-73
2021/01/21 00:39:50;;;;;;;8.05;3.70;;;;;;;;;;5082300;28;20126;-73
2021/01/21 00:42:17;;;;;;;6.15;2.53;;;;;;;;;;5078863;28;20044;-73
2021/01/21 00:44:43;;;;;;;6.53;2.78;;;;;;;;;;5082426;28;20040;-73
2021/01/21 00:47:09;;;;;;;6.03;2.60;;;;;;;;;;5085322;28;20040;-73
2021/01/21 00:49:35;;;;;;;12.38;3.30;;;;;;;;;;5079472;28;20459;-73
2021/01/21 00:52:01;;;;;;;6.30;2.42;;;;;;;;;;5083691;28;20040;-73
2021/01/21 00:54:28;;;;;;;6.97;2.47;;;;;;;;;;5082212;28;20139;-73
2021/01/21 00:56:54;;;;;;;6.60;2.70;;;;;;;;;;5078531;28;20036;-73
2021/01/21 00:59:20;;;;;;;7.72;2.67;;;;;;;;;;5083727;28;20042;-72
2021/01/21 01:01:46;;;;;;;6.55;2.50;;;;;;;;;;5085057;28;20051;-73
2021/01/21 01:04:13;;;;;;;7.85;2.40;;;;;;;;;;5082037;28;20043;-73
2021/01/21 01:06:39;;;;;;;4.85;1.83;;;;;;;;;;5080440;28;20044;-73
2021/01/21 01:09:06;;;;;;;7.10;2.45;;;;;;;;;;5084074;28;20511;-73
2021/01/21 01:11:32;;;;;;;7.88;2.30;;;;;;;;;;5082396;28;20055;-73
2021/01/21 01:13:58;;;;;;;6.85;2.70;;;;;;;;;;5083462;28;20044;-73
2021/01/21 01:16:24;;;;;;;5.32;2.30;;;;;;;;;;5083641;28;20062;-73
2021/01/21 01:18:51;;;;;;;6.30;3.13;;;;;;;;;;5084309;28;20131;-73
2021/01/21 01:21:17;;;;;;;8.32;2.55;;;;;;;;;;5083704;28;20097;-73
2021/01/21 01:23:43;;;;;;;9.82;2.92;;;;;;;;;;5077468;28;20040;-73
2021/01/21 01:26:09;;;;;;;5.25;2.03;;;;;;;;;;5085825;28;20075;-73
2021/01/21 01:28:38;;;;;;;6.03;1.70;;;;;;;;;;5077157;28;20093;-73
2021/01/21 01:31:04;;;;;;;4.90;1.83;;;;;;;;;;5071161;28;20852;-73
2021/01/21 01:33:30;;;;;;;4.63;2.00;;;;;;;;;;5079714;28;20040;-73
2021/01/21 01:35:56;;;;;;;5.85;2.00;;;;;;;;;;5084823;28;20044;-73
2021/01/21 01:38:22;;;;;;;6.60;2.10;;;;;;;;;;5080838;28;20054;-73
2021/01/21 01:40:53;;;;;;;4.78;2.10;;;;;;;;;;5087950;28;20452;-73
2021/01/21 01:43:19;;;;;;;5.97;2.35;;;;;;;;;;5088876;28;20048;-73
2021/01/21 01:45:45;;;;;;;6.70;1.75;;;;;;;;;;5083855;28;20119;-73
2021/01/21 01:48:11;;;;;;;8.90;2.25;;;;;;;;;;5090568;28;20048;-73
2021/01/21 01:50:38;;;;;;;5.68;2.10;;;;;;;;;;5088613;28;20063;-73
2021/01/21 01:53:05;;;;;;;5.38;1.73;;;;;;;;;;5087490;28;20102;-73
2021/01/21 01:55:31;;;;;;;6.18;2.00;;;;;;;;;;5087070;28;20161;-73
2021/01/21 01:57:57;;;;;;;5.25;1.85;;;;;;;;;;5088307;28;20046;-73
2021/01/21 02:00:23;;;;;;;6.50;1.50;;;;;;;;;;5084938;28;20328;-73
2021/01/21 02:02:50;;;;;;;5.57;1.98;;;;;;;;;;5081791;28;20375;-73
2021/01/21 02:05:18;;;;;;;4.53;1.73;;;;;;;;;;5089067;28;20039;-73
2021/01/21 02:07:45;;;;;;;7.03;2.45;;;;;;;;;;5085013;28;20082;-73
2021/01/21 02:10:12;;;;;;;3.65;1.55;;;;;;;;;;5084747;28;20044;-73
2021/01/21 02:12:56;;;;;;;4.60;1.83;;;;;;;;;;5086309;28;20058;-73
2021/01/21 02:15:22;;;;;;;;;;;;;;;;;;5085957;28;20048;-73
2021/01/21 02:17:50;;;;;;;6.00;1.80;;;;;;;;;;5078528;28;19965;-72
2021/01/21 02:20:48;;;;;;;8.05;1.65;;;;;;;;;;5084471;28;20048;-73
2021/01/21 02:23:43;;;;;;;6.60;2.20;;;;;;;;;;5086197;28;20044;-73
2021/01/21 02:26:11;;;;;;;5.68;1.90;;;;;;;;;;5088870;28;20070;-74
2021/01/21 02:28:37;;;;;;;10.60;3.20;;;;;;;;;;5086935;28;20591;-73
2021/01/21 02:31:15;;;;;;;3.75;1.55;;;;;;;;;;5078671;28;20127;-73
2021/01/21 02:33:53;;;;;;;7.63;1.80;;;;;;;;;;5080429;28;20105;-73
2021/01/21 02:36:20;;;;;;;3.30;1.45;;;;;;;;;;5081158;28;20395;-74
2021/01/21 02:38:47;;;;;;;4.35;1.67;;;;;;;;;;5087605;28;20248;-73
2021/01/21 02:41:14;;;;;;;5.32;1.40;;;;;;;;;;5083772;28;20040;-73
2021/01/21 02:43:40;;;;;;;6.05;1.85;;;;;;;;;;5087456;28;20040;-73
2021/01/21 02:46:07;;;;;;;6.22;1.67;;;;;;;;;;5091232;28;20039;-73
2021/01/21 02:48:34;;;;;;;7.32;1.67;;;;;;;;;;5084836;28;20083;-73
2021/01/21 02:51:05;;;;;;;7.03;2.22;;;;;;;;;;5086495;28;20055;-73
2021/01/21 02:53:31;;;;;;;5.57;1.92;;;;;;;;;;5085397;28;20032;-73
2021/01/21 02:56:01;;;;;;;5.55;1.60;;;;;;;;;;5078936;28;20109;-73
2021/01/21 02:58:33;;;;;;;6.57;1.58;;;;;;;;;;5081446;28;20047;-73
2021/01/21 03:01:00;;;;;;;5.75;1.67;;;;;;;;;;5083634;28;20054;-73
2021/01/21 03:03:27;;;;;;;4.32;1.55;;;;;;;;;;5080605;28;20040;-73
2021/01/21 03:05:57;;;;;;;7.55;1.73;;;;;;;;;;5083786;28;20040;-73
2021/01/21 03:08:23;;;;;;;10.23;2.08;;;;;;;;;;5083719;28;20191;-73
2021/01/21 03:10:49;;;;;;;7.80;1.80;;;;;;;;;;5087233;28;20064;-73
2021/01/21 03:13:16;;;;;;;4.68;1.60;;;;;;;;;;5084914;28;20071;-73
2021/01/21 03:15:42;;;;;;;4.05;1.73;;;;;;;;;;5083256;28;20055;-73
2021/01/21 03:18:08;;;;;;;5.07;1.55;;;;;;;;;;5089320;28;20040;-73
2021/01/21 03:20:35;;;;;;;4.00;1.40;;;;;;;;;;5089156;28;20472;-73
2021/01/21 03:23:01;;;;;;;5.80;1.48;;;;;;;;;;5086862;28;20150;-73
2021/01/21 03:25:27;;;;;;;5.47;1.25;;;;;;;;;;5086960;28;20111;-73
2021/01/21 03:27:53;;;;;;;3.95;1.23;;;;;;;;;;5077588;28;20080;-74
2021/01/21 03:30:20;;;;;;;5.88;1.48;;;;;;;;;;5069952;28;20048;-73
2021/01/21 03:32:46;;;;;;;4.82;1.50;;;;;;;;;;5074094;28;20508;-73
2021/01/21 03:35:12;;;;;;;4.65;1.40;;;;;;;;;;5083363;28;20628;-73
2021/01/21 03:37:38;;;;;;;6.90;1.88;;;;;;;;;;5082767;28;20047;-73
2021/01/21 03:40:05;;;;;;;5.32;2.80;;;;;;;;;;5085339;28;20040;-73
2021/01/21 03:42:31;;;;;;;4.80;1.80;;;;;;;;;;5082261;28;20044;-74
2021/01/21 03:44:57;;;;;;;4.25;1.40;;;;;;;;;;5088879;28;20043;-73
2021/01/21 03:47:24;;;;;;;9.52;1.90;;;;;;;;;;5087181;28;20047;-73
2021/01/21 03:49:50;;;;;;;6.65;1.75;;;;;;;;;;5081520;28;20058;-74
2021/01/21 03:52:16;;;;;;;4.10;1.38;;;;;;;;;;5079562;28;20040;-74
2021/01/21 03:54:43;;;;;;;10.52;2.53;;;;;;;;;;5080502;28;20051;-73
2021/01/21 03:57:09;;;;;;;7.25;2.17;;;;;;;;;;5083047;28;20126;-74
2021/01/21 03:59:35;;;;;;;9.32;2.05;;;;;;;;;;5085825;28;21316;-73
2021/01/21 04:02:01;;;;;;;4.63;1.75;;;;;;;;;;5082265;28;20047;-73
2021/01/21 04:04:28;;;;;;;4.57;1.67;;;;;;;;;;5099081;27;20127;-72
2021/01/21 04:06:55;;;;;;;7.07;1.70;;;;;;;;;;5083241;28;20442;-72
2021/01/21 04:09:21;;;;;;;6.88;1.85;;;;;;;;;;5082828;28;20059;-72
2021/01/21 04:11:47;;;;;;;8.68;2.00;;;;;;;;;;5080584;28;20389;-72
2021/01/21 04:14:13;;;;;;;5.13;1.67;;;;;;;;;;5084079;28;20051;-72
2021/01/21 04:16:40;;;;;;;7.20;1.83;;;;;;;;;;5088889;28;20556;-72
2021/01/21 04:19:06;;;;;;;6.50;2.95;;;;;;;;;;5083595;28;20040;-72
2021/01/21 04:21:32;;;;;;;6.60;2.20;;;;;;;;;;5081825;28;20161;-72
2021/01/21 04:24:00;;;;;;;7.63;2.47;;;;;;;;;;5082773;28;20188;-73
2021/01/21 04:26:27;;;;;;;7.22;2.60;;;;;;;;;;5081667;28;20038;-73
2021/01/21 04:28:53;;;;;;;7.88;2.35;;;;;;;;;;5078090;28;20082;-72
2021/01/21 04:31:19;;;;;;;9.77;2.88;;;;;;;;;;5075254;28;20036;-73
2021/01/21 04:33:46;;;;;;;8.07;2.55;;;;;;;;;;5083960;28;20040;-73
2021/01/21 04:36:12;;;;;;;6.13;2.60;;;;;;;;;;5084081;28;20044;-73
2021/01/21 04:38:38;;;;;;;6.93;2.72;;;;;;;;;;5084951;28;20182;-73
2021/01/21 04:41:05;;;;;;;17.45;4.80;;;;;;;;;;5084526;28;20048;-73
2021/01/21 04:43:31;;;;;;;5.38;1.70;;;;;;;;;;5082886;28;20483;-74
2021/01/21 04:45:57;;;;;;;7.40;1.67;;;;;;;;;;5084396;28;20075;-73
2021/01/21 04:48:24;;;;;;;6.75;1.02;;;;;;;;;;5082731;28;20055;-73
2021/01/21 04:50:50;;;;;;;7.82;1.58;;;;;;;;;;5082757;28;20126;-73
2021/01/21 04:53:17;;;;;;;5.50;1.45;;;;;;;;;;5084576;28;20156;-73
2021/01/21 04:55:46;;;;;;;9.45;1.98;;;;;;;;;;5084420;28;20036;-74
2021/01/21 04:58:13;;;;;;;7.07;1.35;;;;;;;;;;5083095;28;20058;-73
2021/01/21 05:00:41;;;;;;;8.57;1.40;;;;;;;;;;5080454;28;20173;-73
2021/01/21 05:03:09;;;;;;;8.07;1.50;;;;;;;;;;5086461;28;20594;-73
2021/01/21 05:05:35;;;;;;;11.77;1.60;;;;;;;;;;5081581;28;20040;-73
2021/01/21 05:08:04;;;;;;;12.63;2.40;;;;;;;;;;5083725;28;21554;-73
2021/01/21 05:10:30;;;;;;;15.48;2.20;;;;;;;;;;5078614;28;20044;-73
2021/01/21 05:12:56;;;;;;;21.00;2.35;;;;;;;;;;5077879;28;20514;-73
2021/01/21 05:15:22;;;;;;;14.80;2.33;;;;;;;;;;5082619;28;20043;-73
2021/01/21 05:17:49;;;;;;;15.95;2.35;;;;;;;;;;5113129;27;20048;-73
2021/01/21 05:20:15;;;;;;;14.52;2.28;;;;;;;;;;5085122;28;20044;-73
2021/01/21 05:22:41;;;;;;;24.83;4.88;;;;;;;;;;5082915;28;20101;-73
2021/01/21 05:25:08;;;;;;;21.67;2.78;;;;;;;;;;5084276;28;20055;-73
2021/01/21 05:27:35;;;;;;;18.35;2.72;;;;;;;;;;5071138;28;20094;-72
2021/01/21 05:30:03;;;;;;;19.58;2.83;;;;;;;;;;5059603;28;20046;-73
2021/01/21 05:32:29;;;;;;;14.25;2.22;;;;;;;;;;5063547;28;20048;-73
2021/01/21 05:34:56;;;;;;;13.93;2.20;;;;;;;;;;5081602;28;20134;-73
2021/01/21 05:37:22;;;;;;;9.10;2.13;;;;;;;;;;5084219;28;20314;-73
2021/01/21 05:39:48;;;;;;;17.63;3.42;;;;;;;;;;5078359;28;20066;-72
2021/01/21 05:42:14;;;;;;;14.80;2.03;;;;;;;;;;5084135;28;20056;-73
2021/01/21 05:44:41;;;;;;;16.10;2.70;;;;;;;;;;5079190;28;20472;-73
2021/01/21 05:47:09;;;;;;;20.98;2.88;;;;;;;;;;5085581;28;20097;-73
2021/01/21 05:49:36;;;;;;;13.98;2.78;;;;;;;;;;5083173;28;20112;-73
2021/01/21 05:52:03;;;;;;;15.75;2.17;;;;;;;;;;5080729;28;20550;-73
2021/01/21 05:54:29;;;;;;;15.02;2.15;;;;;;;;;;5080672;28;20032;-73
2021/01/21 05:56:56;;;;;;;9.25;1.40;;;;;;;;;;5080272;28;20476;-73
2021/01/21 05:59:24;;;;;;;9.68;1.30;;;;;;;;;;5081080;28;20036;-72
2021/01/21 06:01:51;;;;;;;10.23;1.48;;;;;;;;;;5084062;28;20040;-73
2021/01/21 06:04:18;;;;;;;14.10;2.40;;;;;;;;;;5078881;28;20051;-72
2021/01/21 06:06:44;;;;;;;8.68;1.38;;;;;;;;;;5086409;28;20040;-72
2021/01/21 06:09:15;;;;;;;10.48;1.50;;;;;;;;;;5084377;28;20458;-72
2021/01/21 06:11:43;;;;;;;13.60;1.60;;;;;;;;;;5082204;28;20113;-73
2021/01/21 06:14:11;;;;;;;17.85;2.25;;;;;;;;;;5090187;28;20036;-73
2021/01/21 06:16:38;;;;;;;15.60;2.10;;;;;;;;;;5090925;28;20116;-73
2021/01/21 06:19:04;;;;;;;18.77;2.58;;;;;;;;;;5093517;28;20050;-73
2021/01/21 06:21:33;;;;;;;23.80;2.08;;;;;;;;;;5094910;28;20047;-73
2021/01/21 06:24:02;;;;;;;15.18;2.30;;;;;;;;;;5091831;28;20077;-74
2021/01/21 06:26:32;;;;;;;11.52;2.28;;;;;;;;;;5088621;28;20052;-74
2021/01/21 06:28:59;;;;;;;11.07;2.40;;;;;;;;;;5090199;28;20075;-73
2021/01/21 06:31:26;;;;;;;10.50;1.60;;;;;;;;;;5102870;27;20051;-73
2021/01/21 06:33:53;;;;;;;17.33;2.70;;;;;;;;;;5084551;28;20048;-74
2021/01/21 06:36:21;;;;;;;10.15;1.50;;;;;;;;;;5086964;28;20036;-73
2021/01/21 06:38:51;;;;;;;14.95;2.00;;;;;;;;;;5088728;28;20052;-73
2021/01/21 06:41:19;;;;;;;18.73;2.28;;;;;;;;;;5105671;27;20055;-73
2021/01/21 06:43:46;;;;;;;13.73;2.35;;;;;;;;;;5095672;28;20044;-76
2021/01/21 06:46:14;;;;;;;11.13;3.13;;;;;;;;;;5088970;28;20492;-73
2021/01/21 06:48:41;;;;;;;17.10;2.20;;;;;;;;;;5093421;28;20090;-73
2021/01/21 06:51:09;;;;;;;10.02;1.85;;;;;;;;;;5092705;28;20067;-73
2021/01/21 06:53:36;;;;;;;17.65;2.90;;;;;;;;;;5090527;28;20387;-72
2021/01/21 06:56:02;;;;;;;16.15;2.72;;;;;;;;;;5087963;28;20109;-74
2021/01/21 06:58:47;;;;;;;13.07;2.30;;;;;;;;;;5086270;28;20050;-75
2021/01/21 07:01:29;;;;;;;15.18;2.58;;;;;;;;;;5089443;28;20067;-75
2021/01/21 07:03:56;;;;;;;10.15;2.35;;;;;;;;;;5090120;28;20128;-74
2021/01/21 07:06:23;;;;;;;13.13;2.47;;;;;;;;;;5096473;28;20437;-72
2021/01/21 07:09:05;;;;;;;14.73;2.72;;;;;;;;;;5088925;28;20044;-73
2021/01/21 07:11:34;;;;;;;24.83;3.45;;;;;;;;;;5089115;28;20040;-73
2021/01/21 07:14:00;;;;;;;22.67;3.08;;;;;;;;;;5088054;28;20060;-72
2021/01/21 07:16:27;;;;;;;14.65;2.20;;;;;;;;;;5090010;28;20097;-72
2021/01/21 07:18:55;;;;;;;13.60;2.53;;;;;;;;;;5089847;28;20054;-73
2021/01/21 07:21:31;;;;;;;16.70;3.10;;;;;;;;;;5089398;28;20043;-75
2021/01/21 07:23:58;;;;;;;12.38;1.92;;;;;;;;;;5088959;28;20135;-74
2021/01/21 07:26:25;;;;;;;15.18;2.05;;;;;;;;;;5088450;28;20086;-72
2021/01/21 07:29:07;;;;;;;12.75;2.88;;;;;;;;;;5089959;28;20064;-74
2021/01/21 07:32:05;;;;;;;22.20;3.05;;;;;;;;;;5087822;28;20048;-73
2021/01/21 07:34:50;;;;;;;16.15;3.10;;;;;;;;;;5094261;28;20043;-77
2021/01/21 07:37:19;;;;;;;14.50;2.08;;;;;;;;;;5091034;28;20045;-85
2021/01/21 07:39:47;;;;;;;11.45;2.40;;;;;;;;;;5087420;28;20081;-84
2021/01/21 07:42:14;;;;;;;13.85;2.10;;;;;;;;;;5080148;28;20185;-84
2021/01/21 07:44:53;;;;;;;24.52;2.65;;;;;;;;;;5083375;28;20423;-74
2021/01/21 07:47:26;;;;;;;19.15;1.85;;;;;;;;;;5098914;28;20044;-90
2021/01/21 07:50:13;;;;;;;14.93;3.05;;;;;;;;;;5103689;28;20188;-93
2021/01/21 07:52:40;;;;;;;12.07;1.92;;;;;;;;;;5106775;28;20043;-82
2021/01/21 07:55:06;;;;;;;13.98;3.00;;;;;;;;;;5096171;28;20043;-78
2021/01/21 07:57:33;;;;;;;13.45;2.53;;;;;;;;;;5090314;28;20050;-77
2021/01/21 08:00:00;;;;;;;15.25;2.30;;;;;;;;;;5098144;28;20105;-74
2021/01/21 08:02:46;;;;;;;14.70;2.58;;;;;;;;;;5090345;28;20047;-73
2021/01/21 08:05:14;;;;;;;13.02;3.28;;;;;;;;;;5103991;27;20047;-73
2021/01/21 08:07:44;;;;;;;20.23;3.72;;;;;;;;;;5093642;28;20040;-73
2021/01/21 08:10:11;;;;;;;17.55;2.05;;;;;;;;;;5092333;28;20059;-74
2021/01/21 08:12:38;;;;;;;14.75;2.17;;;;;;;;;;5095224;28;20036;-74
2021/01/21 08:15:05;;;;;;;11.45;1.55;;;;;;;;;;5081528;28;20504;-74
2021/01/21 08:17:31;;;;;;;15.50;2.03;;;;;;;;;;5088442;28;20040;-73
2021/01/21 08:19:58;;;;;;;17.20;2.85;;;;;;;;;;5090908;28;20044;-73
2021/01/21 08:22:24;;;;;;;17.73;3.53;;;;;;;;;;5097446;28;20135;-73
2021/01/21 08:24:56;;;;;;;23.00;3.35;;;;;;;;;;5091144;28;20080;-74
2021/01/21 08:27:23;;;;;;;15.93;2.92;;;;;;;;;;5091297;28;20127;-74
2021/01/21 08:29:49;;;;;;;12.18;2.22;;;;;;;;;;5089508;28;20130;-74
2021/01/21 08:32:16;;;;;;;12.05;2.05;;;;;;;;;;5085597;28;21639;-74
2021/01/21 08:34:42;;;;;;;14.90;2.88;;;;;;;;;;5087263;28;20430;-71
2021/01/21 08:37:09;;;;;;;11.40;2.20;;;;;;;;;;5102729;27;20076;-75
2021/01/21 08:39:36;;;;;;;20.63;1.95;;;;;;;;;;5085589;28;20050;-73
2021/01/21 08:42:05;;;;;;;14.68;2.35;;;;;;;;;;5086873;28;20067;-72
2021/01/21 08:44:31;;;;;;;19.35;3.28;;;;;;;;;;5088180;28;20059;-72
2021/01/21 08:46:58;;;;;;;9.80;2.28;;;;;;;;;;5088255;28;20039;-73
2021/01/21 08:49:25;;;;;;;12.32;2.50;;;;;;;;;;5086812;28;20044;-73
2021/01/21 08:52:05;;;;;;;12.75;3.13;;;;;;;;;;5089817;28;20054;-73
2021/01/21 08:54:31;;;;;;;13.82;3.10;;;;;;;;;;5081211;28;20040;-73
2021/01/21 08:57:11;;;;;;;13.23;2.50;;;;;;;;;;5083942;28;20055;-73
2021/01/21 08:59:39;;;;;;;17.65;2.80;;;;;;;;;;5084819;28;20811;-73
2021/01/21 09:02:05;;;;;;;13.90;2.03;;;;;;;;;;5086701;28;20164;-73
2021/01/21 09:04:35;;;;;;;15.05;3.15;;;;;;;;;;5087520;28;20502;-75
2021/01/21 09:07:01;;;;;;;18.35;3.58;;;;;;;;;;5088349;28;20115;-74
2021/01/21 09:09:30;;;;;;;15.30;3.15;;;;;;;;;;5087519;28;20348;-73
2021/01/21 09:11:57;;;;;;;22.27;3.10;;;;;;;;;;5089358;28;20495;-79
2021/01/21 09:14:26;;;;;;;18.75;2.47;;;;;;;;;;5086927;28;20040;-81
2021/01/21 09:16:53;;;;;;;11.40;2.03;;;;;;;;;;5088176;28;20142;-79
2021/01/21 09:19:39;;;;;;;12.43;2.00;;;;;;;;;;5086303;28;20058;-82
2021/01/21 09:22:06;;;;;;;16.42;2.53;;;;;;;;;;5087753;28;20476;-79
2021/01/21 09:24:33;;;;;;;13.73;2.80;;;;;;;;;;5087338;28;20405;-80
2021/01/21 09:27:08;;;;;;;23.42;2.80;;;;;;;;;;5092547;28;20355;-80
2021/01/21 09:29:51;;;;;;;14.63;2.33;;;;;;;;;;5086674;28;20049;-80
2021/01/21 09:32:18;;;;;;;13.80;2.67;;;;;;;;;;5095528;28;20043;-80
2021/01/21 09:34:52;;;;;;;13.88;2.20;;;;;;;;;;5085019;28;20044;-80
2021/01/21 09:37:18;;;;;;;11.30;2.08;;;;;;;;;;5086602;28;20036;-80
2021/01/21 09:39:45;;;;;;;16.50;2.50;;;;;;;;;;5087362;28;20064;-80
2021/01/21 09:42:11;;;;;;;12.88;2.83;;;;;;;;;;5092732;28;20040;-79
2021/01/21 09:44:38;;;;;;;14.68;2.80;;;;;;;;;;5087417;28;20498;-79
2021/01/21 09:47:04;;;;;;;12.02;2.50;;;;;;;;;;5093271;28;20674;-80
2021/01/21 09:49:30;;;;;;;11.57;2.65;;;;;;;;;;5091895;28;20036;-79
2021/01/21 09:51:59;;;;;;;9.63;2.00;;;;;;;;;;5091373;28;20040;-80
2021/01/21 09:54:26;;;;;;;15.32;2.85;;;;;;;;;;5085927;28;20040;-79
2021/01/21 09:56:52;;;;;;;14.95;2.65;;;;;;;;;;5088033;28;20071;-79
2021/01/21 09:59:19;;;;;;;15.82;2.10;;;;;;;;;;5089433;28;20126;-80
2021/01/21 10:01:47;;;;;;;12.02;2.40;;;;;;;;;;5092112;28;20065;-79
2021/01/21 10:04:14;;;;;;;11.02;2.15;;;;;;;;;;5088243;28;20044;-80
2021/01/21 10:06:40;;;;;;;12.40;2.45;;;;;;;;;;5093194;28;20047;-80
2021/01/21 10:09:07;;;;;;;13.85;2.50;;;;;;;;;;5089592;28;20052;-81
2021/01/21 10:11:33;;;;;;;8.60;1.75;;;;;;;;;;5089425;28;20047;-80
2021/01/21 10:14:00;;;;;;;13.00;1.88;;;;;;;;;;5119027;27;20050;-79
2021/01/21 10:16:29;;;;;;;14.93;3.05;;;;;;;;;;5085392;28;20052;-78
2021/01/21 10:18:57;;;;;;;17.42;2.88;;;;;;;;;;5092624;28;20544;-81
2021/01/21 10:21:24;;;;;;;16.52;2.97;;;;;;;;;;5088878;28;20056;-80
2021/01/21 10:23:51;;;;;;;15.80;2.65;;;;;;;;;;5093240;28;20097;-79
2021/01/21 10:26:18;;;;;;;21.42;3.15;;;;;;;;;;5089794;28;20043;-78
2021/01/21 10:28:44;;;;;;;18.23;2.58;;;;;;;;;;5093092;28;20032;-91
2021/01/21 10:31:11;;;;;;;9.30;1.73;;;;;;;;;;5089714;28;20048;-85
2021/01/21 10:33:38;;;;;;;12.70;2.80;;;;;;;;;;5088104;28;20076;-85
2021/01/21 10:36:05;;;;;;;13.63;2.28;;;;;;;;;;5090333;28;20043;-86
2021/01/21 10:38:32;;;;;;;17.27;2.50;;;;;;;;;;5091296;28;20075;-84
2021/01/21 10:40:59;;;;;;;17.83;3.17;;;;;;;;;;5093210;28;20050;-75
2021/01/21 10:43:26;;;;;;;10.13;2.30;;;;;;;;;;5089848;28;20442;-77
2021/01/21 10:45:53;;;;;;;8.73;2.13;;;;;;;;;;5091241;28;20044;-79
2021/01/21 10:48:19;;;;;;;16.05;2.13;;;;;;;;;;5088714;28;20540;-79
2021/01/21 10:50:46;;;;;;;16.38;2.58;;;;;;;;;;5091021;28;20059;-78
2021/01/21 10:53:12;;;;;;;20.27;3.83;;;;;;;;;;5089340;28;20427;-80
2021/01/21 10:55:38;;;;;;;17.40;3.22;;;;;;;;;;5119974;27;20045;-77
2021/01/21 10:58:05;;;;;;;13.75;2.78;;;;;;;;;;5088824;28;20062;-78
2021/01/21 11:00:32;;;;;;;13.38;2.42;;;;;;;;;;5090739;28;20465;-78
2021/01/21 11:02:59;;;;;;;9.07;1.83;;;;;;;;;;5086891;28;20395;-79
2021/01/21 11:05:25;;;;;;;13.77;2.58;;;;;;;;;;5081275;28;20045;-78
2021/01/21 11:07:52;;;;;;;12.82;2.83;;;;;;;;;;5080906;28;20395;-78
2021/01/21 11:10:18;;;;;;;11.80;2.83;;;;;;;;;;5078208;28;20101;-78
2021/01/21 11:12:46;;;;;;;10.27;2.92;;;;;;;;;;5095858;28;20047;-78
2021/01/21 11:15:12;;;;;;;16.58;3.40;;;;;;;;;;5080492;28;20540;-81
2021/01/21 11:17:39;;;;;;;12.02;2.40;;;;;;;;;;5076917;28;20471;-78
2021/01/21 11:20:06;;;;;;;12.45;2.60;;;;;;;;;;5082428;28;20041;-78
2021/01/21 11:22:32;;;;;;;17.55;4.20;;;;;;;;;;5092791;28;20066;-79
2021/01/21 11:24:59;;;;;;;13.18;2.83;;;;;;;;;;5078297;28;20040;-79
2021/01/21 11:27:25;;;;;;;11.30;2.65;;;;;;;;;;5089671;28;20070;-78
2021/01/21 11:29:51;;;;;;;16.10;2.40;;;;;;;;;;5086291;28;20032;-78
2021/01/21 11:32:18;;;;;;;14.57;3.17;;;;;;;;;;5093002;28;20137;-78
2021/01/21 11:34:44;;;;;;;11.52;2.95;;;;;;;;;;5086988;28;20044;-79
2021/01/21 11:37:10;;;;;;;14.30;2.47;;;;;;;;;;5086072;28;20094;-79
2021/01/21 11:39:37;;;;;;;14.55;2.95;;;;;;;;;;5086199;28;20507;-78
2021/01/21 11:42:03;;;;;;;15.43;2.88;;;;;;;;;;5082997;28;20550;-78
2021/01/21 11:44:29;;;;;;;16.50;2.65;;;;;;;;;;5089632;28;20036;-79
2021/01/21 11:46:56;;;;;;;12.60;2.40;;;;;;;;;;5088662;28;20431;-79
2021/01/21 11:49:22;;;;;;;18.98;2.72;;;;;;;;;;5090564;28;20046;-79
2021/01/21 11:51:48;;;;;;;15.73;2.80;;;;;;;;;;5094822;28;20035;-78
2021/01/21 11:54:14;;;;;;;22.10;3.90;;;;;;;;;;5110242;27;20032;-79
2021/01/21 11:56:41;;;;;;;14.98;2.80;;;;;;;;;;5089627;28;20059;-79
2021/01/21 11:59:07;;;;;;;13.48;2.85;;;;;;;;;;5090500;28;20056;-79
2021/01/21 12:01:34;;;;;;;11.55;2.70;;;;;;;;;;5092883;28;20036;-79
2021/01/21 12:04:00;;;;;;;10.38;2.58;;;;;;;;;;5091543;28;20044;-79
2021/01/21 12:06:27;;;;;;;23.80;3.17;;;;;;;;;;5093508;28;20040;-80
2021/01/21 12:08:54;;;;;;;11.98;2.63;;;;;;;;;;5099566;28;20047;-85
2021/01/21 12:11:20;;;;;;;11.60;2.85;;;;;;;;;;5071796;28;20044;-81
2021/01/21 12:13:46;;;;;;;10.65;2.88;;;;;;;;;;5081496;28;20055;-80
2021/01/21 12:16:13;;;;;;;12.82;2.72;;;;;;;;;;5091561;28;20043;-80
2021/01/21 12:18:40;;;;;;;9.13;2.20;;;;;;;;;;5090986;28;20067;-80
2021/01/21 12:21:06;;;;;;;13.15;2.42;;;;;;;;;;5073837;28;20127;-80
2021/01/21 12:23:32;;;;;;;10.70;2.35;;;;;;;;;;5091732;28;20047;-85
2021/01/21 12:26:01;;;;;;;7.80;2.25;;;;;;;;;;5106653;28;20066;-78
2021/01/21 12:28:28;;;;;;;15.02;2.28;;;;;;;;;;5093055;28;20045;-79
2021/01/21 12:30:54;;;;;;;10.50;1.85;;;;;;;;;;5099922;28;20040;-80
2021/01/21 12:33:21;;;;;;;14.25;2.10;;;;;;;;;;5091514;28;20147;-79
2021/01/21 12:35:47;;;;;;;9.25;1.77;;;;;;;;;;5090984;28;20434;-79
2021/01/21 12:38:13;;;;;;;11.68;2.25;;;;;;;;;;5090878;28;20067;-80
2021/01/21 12:40:40;;;;;;;9.88;1.90;;;;;;;;;;5082139;28;20040;-75
2021/01/21 12:43:06;;;;;;;13.32;2.58;;;;;;;;;;5083820;28;20036;-76
2021/01/21 12:45:32;;;;;;;12.02;2.30;;;;;;;;;;5093015;28;20044;-76
2021/01/21 12:47:58;;;;;;;11.60;2.20;;;;;;;;;;5098701;28;20047;-76
2021/01/21 12:50:25;;;;;;;13.25;2.35;;;;;;;;;;5091232;28;20047;-75
2021/01/21 12:52:51;;;;;;;10.80;2.28;;;;;;;;;;5089032;28;20391;-74
2021/01/21 12:55:18;;;;;;;10.73;2.08;;;;;;;;;;5097730;28;20044;-75
2021/01/21 12:57:44;;;;;;;11.15;1.83;;;;;;;;;;5088484;28;20102;-75
2021/01/21 13:00:11;;;;;;;8.63;2.20;;;;;;;;;;5087988;28;20047;-76
2021/01/21 13:02:37;;;;;;;9.80;1.92;;;;;;;;;;5079588;28;20054;-76
2021/01/21 13:05:05;;;;;;;9.50;1.90;;;;;;;;;;5091318;28;20044;-76
2021/01/21 13:07:31;;;;;;;7.00;1.67;;;;;;;;;;5089953;28;20076;-77
2021/01/21 13:09:57;;;;;;;11.30;2.40;;;;;;;;;;5106818;27;20082;-76
2021/01/21 13:12:24;;;;;;;11.48;2.05;;;;;;;;;;5083229;28;20127;-76
2021/01/21 13:14:50;;;;;;;14.75;3.80;;;;;;;;;;5085177;28;20044;-77
2021/01/21 13:17:17;;;;;;;12.77;2.25;;;;;;;;;;5084839;28;20093;-78
2021/01/21 13:19:43;;;;;;;14.60;2.30;;;;;;;;;;5103429;28;20051;-63
2021/01/21 13:22:10;;;;;;;11.27;2.00;;;;;;;;;;5093363;28;20118;-62
2021/01/21 13:24:36;;;;;;;9.85;2.80;;;;;;;;;;5096886;28;20490;-63
2021/01/21 13:27:03;;;;;;;8.82;2.40;;;;;;;;;;5092381;28;20071;-63
2021/01/21 13:29:29;;;;;;;11.25;2.13;;;;;;;;;;5100311;28;20574;-63
2021/01/21 13:31:55;;;;;;;10.40;2.10;;;;;;;;;;5100145;28;20035;-62
2021/01/21 13:34:22;;;;;;;12.32;2.50;;;;;;;;;;5088636;28;20119;-63
2021/01/21 13:36:48;;;;;;;9.68;2.42;;;;;;;;;;5091741;28;20047;-63
2021/01/21 13:39:15;;;;;;;8.60;1.75;;;;;;;;;;5088535;28;20028;-64
2021/01/21 13:41:42;;;;;;;8.57;1.98;;;;;;;;;;5099317;28;20108;-63
2021/01/21 13:44:08;;;;;;;13.13;2.75;;;;;;;;;;5095576;28;20470;-63
2021/01/21 13:46:35;;;;;;;10.13;2.17;;;;;;;;;;5089113;28;20075;-63
2021/01/21 13:49:01;;;;;;;8.80;2.83;;;;;;;;;;5087370;28;20048;-63
2021/01/21 13:51:27;;;;;;;8.15;2.08;;;;;;;;;;5089880;28;20432;-63
2021/01/21 13:53:54;;;;;;;11.90;1.85;;;;;;;;;;5085383;28;20407;-62
2021/01/21 13:56:20;;;;;;;10.35;2.10;;;;;;;;;;5087768;28;20433;-62
2021/01/21 13:58:47;;;;;;;15.23;2.42;;;;;;;;;;5089389;28;20048;-62
2021/01/21 14:01:13;;;;;;;7.90;1.35;;;;;;;;;;5088836;28;20064;-63
2021/01/21 14:03:40;;;;;;;7.47;1.90;;;;;;;;;;5094374;28;20040;-65
2021/01/21 14:06:06;;;;;;;6.50;1.60;;;;;;;;;;5090251;28;20044;-63
2021/01/21 14:08:33;;;;;;;12.75;2.00;;;;;;;;;;5098614;28;20044;-64
2021/01/21 14:10:59;;;;;;;9.80;2.08;;;;;;;;;;5089480;28;20048;-62
2021/01/21 14:13:26;;;;;;;7.28;1.55;;;;;;;;;;5086138;28;20403;-63
2021/01/21 14:15:52;;;;;;;7.80;1.88;;;;;;;;;;5094441;28;20044;-63
2021/01/21 14:18:19;;;;;;;6.68;1.48;;;;;;;;;;5089109;28;20411;-63
2021/01/21 14:20:46;;;;;;;9.75;1.80;;;;;;;;;;5088714;28;20075;-62
2021/01/21 14:23:13;;;;;;;9.90;2.08;;;;;;;;;;5090385;28;20475;-62
2021/01/21 14:25:40;;;;;;;9.73;1.83;;;;;;;;;;5089968;28;20452;-62
2021/01/21 14:28:08;;;;;;;11.57;2.80;;;;;;;;;;5090616;28;20140;-63
2021/01/21 14:30:34;;;;;;;8.50;1.70;;;;;;;;;;5089769;28;20064;-63
2021/01/21 14:33:01;;;;;;;14.10;2.17;;;;;;;;;;5091484;28;20048;-63
2021/01/21 14:35:27;;;;;;;7.55;1.80;;;;;;;;;;5083411;28;20044;-62
2021/01/21 14:37:54;;;;;;;9.57;1.40;;;;;;;;;;5093418;28;20048;-63